createdAt,value
2023-03-31T00:00:58.132Z,10.60
2023-03-31T00:03:26.659Z,10.70
2023-03-31T00:05:59.951Z,10.70
2023-03-31T00:08:30.687Z,10.70
2023-03-31T00:11:01.506Z,10.80
2023-03-31T00:13:30.359Z,10.80
2023-03-31T00:15:59.276Z,10.80
2023-03-31T00:18:27.660Z,10.80
2023-03-31T00:20:58.224Z,10.90
2023-03-31T00:23:29.135Z,10.80
2023-03-31T00:25:57.217Z,10.90
2023-03-31T00:28:25.426Z,10.90
2023-03-31T00:30:53.669Z,10.90
2023-03-31T00:33:21.817Z,10.90
2023-03-31T00:35:52.810Z,10.90
2023-03-31T00:38:21.936Z,11.00
2023-03-31T00:40:53.834Z,11.00
2023-03-31T00:43:33.576Z,11.00
2023-03-31T00:46:19.930Z,11.10
2023-03-31T00:48:51.584Z,11.00
2023-03-31T00:51:22.472Z,11.10
2023-03-31T00:53:57.492Z,11.10
2023-03-31T00:56:29.883Z,11.20
2023-03-31T00:59:00.454Z,11.20
2023-03-31T01:01:28.633Z,11.20
2023-03-31T01:03:57.520Z,11.10
2023-03-31T01:06:26.009Z,11.10
2023-03-31T01:08:54.589Z,11.00
2023-03-31T01:11:27.483Z,11.00
2023-03-31T01:13:58.014Z,10.90
2023-03-31T01:16:26.089Z,10.90
2023-03-31T01:18:57.515Z,10.90
2023-03-31T01:22:05.545Z,10.90
2023-03-31T01:25:12.507Z,10.90
2023-03-31T01:28:00.775Z,10.90
2023-03-31T01:31:04.175Z,10.90
2023-03-31T01:34:04.322Z,10.90
2023-03-31T01:36:58.581Z,10.90
2023-03-31T01:40:02.657Z,10.90
2023-03-31T01:42:40.489Z,10.90
2023-03-31T01:45:19.937Z,10.90
2023-03-31T01:47:58.136Z,10.90
2023-03-31T01:50:30.495Z,10.90
2023-03-31T01:53:03.204Z,10.90
2023-03-31T01:55:37.892Z,10.90
2023-03-31T01:58:13.248Z,11.00
2023-03-31T02:00:46.795Z,11.00
2023-03-31T02:03:21.913Z,11.00
2023-03-31T02:05:54.756Z,11.00
2023-03-31T02:08:27.285Z,11.00
2023-03-31T02:10:56.440Z,11.10
2023-03-31T02:13:28.510Z,11.10
2023-03-31T02:16:01.552Z,11.10
2023-03-31T02:18:33.114Z,11.10
2023-03-31T02:21:03.387Z,11.00
2023-03-31T02:23:32.899Z,11.00
2023-03-31T02:26:04.731Z,11.00
2023-03-31T02:28:35.537Z,11.00
2023-03-31T02:31:22.763Z,11.00
2023-03-31T02:33:51.253Z,11.00
2023-03-31T02:36:21.597Z,11.00
2023-03-31T02:38:55.981Z,10.90
2023-03-31T02:41:24.196Z,10.90
2023-03-31T02:43:53.654Z,10.90
2023-03-31T02:46:22.466Z,10.90
2023-03-31T02:48:53.141Z,10.80
2023-03-31T02:52:00.187Z,10.80
2023-03-31T02:54:51.680Z,10.80
2023-03-31T02:57:41.631Z,10.80
2023-03-31T03:00:21.762Z,10.80
2023-03-31T03:03:02.711Z,10.80
2023-03-31T03:05:40.472Z,10.80
2023-03-31T03:08:19.252Z,10.80
2023-03-31T03:10:59.560Z,10.80
2023-03-31T03:13:34.351Z,10.80
2023-03-31T03:16:09.969Z,10.80
2023-03-31T03:18:38.225Z,10.70
2023-03-31T03:21:07.345Z,10.80
2023-03-31T03:23:35.458Z,10.80
2023-03-31T03:26:03.757Z,10.70
2023-03-31T03:28:32.015Z,10.70
2023-03-31T03:31:00.257Z,10.70
2023-03-31T03:33:29.720Z,10.70
2023-03-31T03:35:58.898Z,10.70
2023-03-31T03:38:26.972Z,10.60
2023-03-31T03:40:55.147Z,10.60
2023-03-31T03:43:23.241Z,10.60
2023-03-31T03:45:51.810Z,10.60
2023-03-31T03:48:20.426Z,10.60
2023-03-31T03:50:49.918Z,10.50
2023-03-31T03:53:18.061Z,10.50
2023-03-31T03:55:48.931Z,10.50
2023-03-31T03:58:19.639Z,10.50
2023-03-31T04:00:48.195Z,10.40
2023-03-31T04:03:16.658Z,10.50
2023-03-31T04:05:44.846Z,10.40
2023-03-31T04:08:14.312Z,10.40
2023-03-31T04:10:45.556Z,10.40
2023-03-31T04:13:13.822Z,10.40
2023-03-31T04:15:41.972Z,10.40
2023-03-31T04:18:18.607Z,10.40
2023-03-31T04:20:54.659Z,10.40
2023-03-31T04:23:26.687Z,10.40
2023-03-31T04:25:54.939Z,10.40
2023-03-31T04:28:23.882Z,10.40
2023-03-31T04:30:51.916Z,10.40
2023-03-31T04:33:20.274Z,10.40
2023-03-31T04:35:52.677Z,10.40
2023-03-31T04:38:22.806Z,10.40
2023-03-31T04:40:54.022Z,10.50
2023-03-31T04:43:23.020Z,10.50
2023-03-31T04:45:51.280Z,10.50
2023-03-31T04:48:19.333Z,10.50
2023-03-31T04:50:47.945Z,10.50
2023-03-31T04:53:15.996Z,10.60
2023-03-31T04:55:44.082Z,10.60
2023-03-31T04:58:13.576Z,10.60
2023-03-31T05:00:41.782Z,10.60
2023-03-31T05:03:10.454Z,10.60
2023-03-31T05:05:38.688Z,10.60
2023-03-31T05:08:06.913Z,10.60
2023-03-31T05:10:35.026Z,10.60
2023-03-31T05:13:03.229Z,10.60
2023-03-31T05:15:34.535Z,10.60
2023-03-31T05:18:03.170Z,10.60
2023-03-31T05:20:31.396Z,10.60
2023-03-31T05:22:59.591Z,10.60
2023-03-31T05:25:32.626Z,10.60
2023-03-31T05:28:01.991Z,10.60
2023-03-31T05:30:30.769Z,10.60
2023-03-31T05:33:00.280Z,10.60
2023-03-31T05:35:29.956Z,10.60
2023-03-31T05:37:58.007Z,10.60
2023-03-31T05:40:26.105Z,10.60
2023-03-31T05:42:54.142Z,10.60
2023-03-31T05:45:22.401Z,10.60
2023-03-31T05:47:50.972Z,10.60
2023-03-31T05:50:20.589Z,10.60
2023-03-31T05:52:48.483Z,10.60
2023-03-31T05:55:16.651Z,10.60
2023-03-31T05:57:44.752Z,10.60
2023-03-31T06:00:14.161Z,10.60
2023-03-31T06:02:42.959Z,10.70
2023-03-31T06:05:11.122Z,10.70
2023-03-31T06:07:40.564Z,10.70
2023-03-31T06:10:10.928Z,10.70
2023-03-31T06:12:40.795Z,10.70
2023-03-31T06:15:09.761Z,10.80
2023-03-31T06:17:38.840Z,10.80
2023-03-31T06:20:23.985Z,10.80
2023-03-31T06:22:56.406Z,10.80
2023-03-31T06:25:24.535Z,10.80
2023-03-31T06:27:52.699Z,10.90
2023-03-31T06:30:21.629Z,10.90
2023-03-31T06:32:49.773Z,10.80
2023-03-31T06:35:18.083Z,10.80
2023-03-31T06:37:46.736Z,10.80
2023-03-31T06:40:16.586Z,10.80
2023-03-31T06:42:44.707Z,10.70
2023-03-31T06:45:12.880Z,10.80
2023-03-31T06:47:41.612Z,10.70
2023-03-31T06:50:11.520Z,10.70
2023-03-31T06:52:40.903Z,10.70
2023-03-31T06:55:13.381Z,10.70
2023-03-31T06:57:42.982Z,10.70
2023-03-31T07:00:12.210Z,10.70
2023-03-31T07:02:40.576Z,10.70
2023-03-31T07:05:09.194Z,10.70
2023-03-31T07:07:37.388Z,10.70
2023-03-31T07:10:06.251Z,10.70
2023-03-31T07:12:34.887Z,10.70
2023-03-31T07:15:04.899Z,10.70
2023-03-31T07:17:33.115Z,10.70
2023-03-31T07:20:01.417Z,10.70
2023-03-31T07:22:29.519Z,10.70
2023-03-31T07:24:57.784Z,10.70
2023-03-31T07:27:26.461Z,10.70
2023-03-31T07:29:55.207Z,10.60
2023-03-31T07:32:28.422Z,10.60
2023-03-31T07:34:57.319Z,10.60
2023-03-31T07:37:27.969Z,10.60
2023-03-31T07:39:56.298Z,10.60
2023-03-31T07:42:24.523Z,10.60
2023-03-31T07:44:52.844Z,10.60
2023-03-31T07:47:21.546Z,10.60
2023-03-31T07:49:51.249Z,10.60
2023-03-31T07:52:19.897Z,10.60
2023-03-31T07:54:48.308Z,10.60
2023-03-31T07:57:17.732Z,10.60
2023-03-31T07:59:46.658Z,10.60
2023-03-31T08:02:16.716Z,10.60
2023-03-31T08:04:45.090Z,10.60
2023-03-31T08:07:16.593Z,10.60
2023-03-31T08:09:46.901Z,10.60
2023-03-31T08:12:15.836Z,10.80
2023-03-31T08:14:43.969Z,10.90
2023-03-31T08:17:12.271Z,11.00
2023-03-31T08:19:40.666Z,10.90
2023-03-31T08:22:08.906Z,10.90
2023-03-31T08:24:38.490Z,10.90
2023-03-31T08:27:12.062Z,10.90
2023-03-31T08:29:42.210Z,10.90
2023-03-31T08:32:10.557Z,10.90
2023-03-31T08:34:42.683Z,11.00
2023-03-31T08:37:11.217Z,11.10
2023-03-31T08:39:41.293Z,11.10
2023-03-31T08:42:16.486Z,11.20
2023-03-31T08:44:50.556Z,11.30
2023-03-31T08:47:22.624Z,11.40
2023-03-31T08:49:54.248Z,11.50
2023-03-31T08:52:28.053Z,11.60
2023-03-31T08:55:00.876Z,11.70
2023-03-31T08:57:36.891Z,11.70
2023-03-31T09:00:07.281Z,11.80
2023-03-31T09:02:48.685Z,11.90
2023-03-31T09:05:29.497Z,12.00
2023-03-31T09:08:06.238Z,12.10
2023-03-31T09:10:44.923Z,12.20
2023-03-31T09:13:46.471Z,12.30
2023-03-31T09:16:17.019Z,12.30
2023-03-31T09:18:49.215Z,12.50
2023-03-31T09:21:22.180Z,12.60
2023-03-31T09:23:57.161Z,12.70
2023-03-31T09:26:33.320Z,12.80
2023-03-31T09:29:04.998Z,13.00
2023-03-31T09:31:33.879Z,12.80
2023-03-31T09:34:10.794Z,12.80
2023-03-31T09:36:39.008Z,12.80
2023-03-31T09:39:07.986Z,12.80
2023-03-31T09:41:37.898Z,12.80
2023-03-31T09:44:06.933Z,12.80
2023-03-31T09:46:38.498Z,12.80
2023-03-31T09:49:12.556Z,12.80
2023-03-31T09:51:47.363Z,12.80
2023-03-31T09:54:22.160Z,12.90
2023-03-31T09:56:54.217Z,12.90
2023-03-31T09:59:23.586Z,13.00
2023-03-31T10:01:54.582Z,13.10
2023-03-31T10:04:25.999Z,13.20
2023-03-31T10:06:56.006Z,13.30
2023-03-31T10:09:28.069Z,13.40
2023-03-31T10:12:04.088Z,13.50
2023-03-31T10:14:41.949Z,13.60
2023-03-31T10:17:16.846Z,13.70
2023-03-31T10:19:50.374Z,13.90
2023-03-31T10:22:29.342Z,13.80
2023-03-31T10:25:10.644Z,13.80
2023-03-31T10:27:41.849Z,13.90
2023-03-31T10:30:13.238Z,13.90
2023-03-31T10:32:43.936Z,14.00
2023-03-31T10:35:23.577Z,14.00
2023-03-31T10:37:55.868Z,14.10
2023-03-31T10:40:27.744Z,14.10
2023-03-31T10:43:10.641Z,14.00
2023-03-31T10:45:42.629Z,13.90
2023-03-31T10:48:20.252Z,13.80
2023-03-31T10:50:49.669Z,13.80
2023-03-31T10:53:19.493Z,13.90
2023-03-31T10:56:23.432Z,13.80
2023-03-31T10:59:10.809Z,13.80
2023-03-31T11:01:52.198Z,13.70
2023-03-31T11:04:53.654Z,13.60
2023-03-31T11:07:34.609Z,13.40
2023-03-31T11:10:24.372Z,13.50
2023-03-31T11:13:00.536Z,13.60
2023-03-31T11:15:38.082Z,13.50
2023-03-31T11:18:20.592Z,13.50
2023-03-31T11:21:01.356Z,13.40
2023-03-31T11:23:40.096Z,13.40
2023-03-31T11:26:12.852Z,13.30
2023-03-31T11:28:55.493Z,13.20
2023-03-31T11:31:38.735Z,13.10
2023-03-31T11:34:26.298Z,13.00
2023-03-31T11:37:18.565Z,12.90
2023-03-31T11:39:58.361Z,12.90
2023-03-31T11:42:32.285Z,12.80
2023-03-31T11:45:12.283Z,12.80
2023-03-31T11:47:47.135Z,12.80
2023-03-31T11:50:20.737Z,12.90
2023-03-31T11:52:56.291Z,13.00
2023-03-31T11:55:28.623Z,13.00
2023-03-31T11:58:03.758Z,13.00
2023-03-31T12:00:36.007Z,13.00
2023-03-31T12:03:11.697Z,13.00
2023-03-31T12:05:44.967Z,13.00
2023-03-31T12:08:17.620Z,13.00
2023-03-31T12:10:49.280Z,12.90
2023-03-31T12:13:35.443Z,12.90
2023-03-31T12:16:10.729Z,12.90
2023-03-31T12:18:46.730Z,12.80
2023-03-31T12:21:16.292Z,12.80
2023-03-31T12:23:46.570Z,12.70
2023-03-31T12:26:29.716Z,12.70
2023-03-31T12:29:01.749Z,12.70
2023-03-31T12:31:33.133Z,12.70
2023-03-31T12:34:07.429Z,12.60
2023-03-31T12:36:47.083Z,12.60
2023-03-31T12:39:26.051Z,12.60
2023-03-31T12:42:10.432Z,12.80
2023-03-31T12:44:51.969Z,12.90
2023-03-31T12:47:42.151Z,13.10
2023-03-31T12:50:32.716Z,13.20
2023-03-31T12:53:06.955Z,13.10
2023-03-31T12:55:38.793Z,13.10
2023-03-31T12:58:40.833Z,13.10
2023-03-31T13:01:17.907Z,13.20
2023-03-31T13:03:54.981Z,13.30
2023-03-31T13:06:56.343Z,13.40
2023-03-31T13:09:48.013Z,13.50
2023-03-31T13:12:19.017Z,13.30
2023-03-31T13:14:51.687Z,13.30
2023-03-31T13:17:27.188Z,13.40
2023-03-31T13:19:57.290Z,13.60
2023-03-31T13:22:38.584Z,13.60
2023-03-31T13:25:40.735Z,13.50
2023-03-31T13:28:18.632Z,13.40
2023-03-31T13:30:55.748Z,13.30
2023-03-31T13:33:31.700Z,13.30
2023-03-31T13:36:42.255Z,13.10
2023-03-31T13:39:44.744Z,12.90
2023-03-31T13:42:26.901Z,12.70
2023-03-31T13:45:23.265Z,12.70
2023-03-31T13:48:01.783Z,12.80
2023-03-31T13:50:52.033Z,12.80
2023-03-31T13:53:35.440Z,12.80
2023-03-31T13:56:25.073Z,12.80
2023-03-31T13:59:23.626Z,12.90
2023-03-31T14:02:24.864Z,12.80
2023-03-31T14:05:29.845Z,12.90
2023-03-31T14:08:00.663Z,12.90
2023-03-31T14:10:31.757Z,12.80
2023-03-31T14:13:12.622Z,12.80
2023-03-31T14:15:46.087Z,12.80
2023-03-31T14:18:19.435Z,12.80
2023-03-31T14:21:05.821Z,12.60
2023-03-31T14:23:50.767Z,12.50
2023-03-31T14:26:31.680Z,12.30
2023-03-31T14:29:13.740Z,12.20
2023-03-31T14:31:49.075Z,12.20
2023-03-31T14:34:54.107Z,12.20
2023-03-31T14:37:22.922Z,12.20
2023-03-31T14:39:53.840Z,12.30
2023-03-31T14:42:27.124Z,12.30
2023-03-31T14:44:59.735Z,12.40
2023-03-31T14:47:29.777Z,12.50
2023-03-31T14:50:02.943Z,12.50
2023-03-31T14:52:34.027Z,12.60
2023-03-31T14:55:02.079Z,12.60
2023-03-31T14:57:33.964Z,12.60
2023-03-31T15:00:07.910Z,12.50
2023-03-31T15:02:38.251Z,12.60
2023-03-31T15:05:10.047Z,12.60
2023-03-31T15:07:41.759Z,12.50
2023-03-31T15:10:20.536Z,12.50
2023-03-31T15:12:49.488Z,12.50
2023-03-31T15:15:20.960Z,12.40
2023-03-31T15:17:49.800Z,12.40
2023-03-31T15:20:31.146Z,12.40
2023-03-31T15:23:00.572Z,12.40
2023-03-31T15:25:33.838Z,12.30
2023-03-31T15:28:05.204Z,12.30
2023-03-31T15:30:36.325Z,12.30
2023-03-31T15:35:58.911Z,12.10
2023-03-31T15:38:29.730Z,12.10
2023-03-31T15:40:59.042Z,12.10
2023-03-31T15:43:31.845Z,12.10
2023-03-31T15:46:02.687Z,12.10
2023-03-31T15:48:34.201Z,12.10
2023-03-31T15:51:04.133Z,12.10
2023-03-31T15:53:36.866Z,12.10
2023-03-31T15:56:05.815Z,12.00
2023-03-31T15:58:55.897Z,11.90
2023-03-31T16:01:33.123Z,11.90
2023-03-31T16:04:02.777Z,11.90
2023-03-31T16:06:43.338Z,11.80
2023-03-31T16:09:15.165Z,11.70
2023-03-31T16:11:46.385Z,11.70
2023-03-31T16:14:20.004Z,11.70
2023-03-31T16:16:53.001Z,11.60
2023-03-31T16:19:25.885Z,11.60
2023-03-31T16:21:59.478Z,11.50
2023-03-31T16:24:32.416Z,11.50
2023-03-31T16:27:06.347Z,11.40
2023-03-31T16:29:35.919Z,11.40
2023-03-31T16:32:14.857Z,11.40
2023-03-31T16:35:06.761Z,11.30
2023-03-31T16:37:35.049Z,11.20
2023-03-31T16:40:05.074Z,11.20
2023-03-31T16:42:33.288Z,11.20
2023-03-31T16:45:13.692Z,11.10
2023-03-31T16:47:48.905Z,11.20
2023-03-31T16:50:17.338Z,11.10
2023-03-31T16:52:45.517Z,11.10
2023-03-31T16:55:13.732Z,11.10
2023-03-31T16:57:42.067Z,11.10
2023-03-31T17:00:11.755Z,11.10
2023-03-31T17:02:39.996Z,11.10
2023-03-31T17:05:13.104Z,11.00
2023-03-31T17:07:41.769Z,11.00
2023-03-31T17:10:10.792Z,10.90
2023-03-31T17:12:39.033Z,10.90
2023-03-31T17:15:08.357Z,10.90
2023-03-31T17:17:36.881Z,10.90
2023-03-31T17:20:06.554Z,10.90
2023-03-31T17:22:36.701Z,10.90
2023-03-31T17:25:06.042Z,10.90
2023-03-31T17:27:34.222Z,10.90
2023-03-31T17:30:02.892Z,10.90
2023-03-31T17:32:31.202Z,10.90
2023-03-31T17:34:59.635Z,10.90
2023-03-31T17:37:27.982Z,10.90
2023-03-31T17:39:58.056Z,10.90
2023-03-31T17:42:26.614Z,10.90
2023-03-31T17:44:54.771Z,10.90
2023-03-31T17:47:22.941Z,10.90
2023-03-31T17:49:51.121Z,10.90
2023-03-31T17:52:19.123Z,10.80
2023-03-31T17:54:49.437Z,10.80
2023-03-31T17:57:20.357Z,10.90
2023-03-31T17:59:49.586Z,10.80
2023-03-31T18:02:17.869Z,10.80
2023-03-31T18:04:46.265Z,10.80
2023-03-31T18:07:14.412Z,10.80
2023-03-31T18:09:42.660Z,10.80
2023-03-31T18:12:10.884Z,10.80
2023-03-31T18:14:40.528Z,10.80
2023-03-31T18:17:08.657Z,10.80
2023-03-31T18:19:37.787Z,10.80
2023-03-31T18:22:05.849Z,10.80
2023-03-31T18:24:34.583Z,10.80
2023-03-31T18:27:02.680Z,10.80
2023-03-31T18:29:30.964Z,10.80
2023-03-31T18:32:00.754Z,10.80
2023-03-31T18:34:29.263Z,10.70
2023-03-31T18:36:57.618Z,10.70
2023-03-31T18:39:25.881Z,10.70
2023-03-31T18:41:54.346Z,10.70
2023-03-31T18:44:23.025Z,10.70
2023-03-31T18:46:51.226Z,10.70
2023-03-31T18:49:21.251Z,10.70
2023-03-31T18:51:49.462Z,10.70
2023-03-31T18:54:18.046Z,10.70
2023-03-31T18:56:46.301Z,10.70
2023-03-31T18:59:14.491Z,10.60
2023-03-31T19:01:42.781Z,10.60
2023-03-31T19:04:11.932Z,10.60
2023-03-31T19:06:41.543Z,10.70
2023-03-31T19:09:09.826Z,10.60
2023-03-31T19:11:38.749Z,10.60
2023-03-31T19:14:06.942Z,10.60
2023-03-31T19:16:41.554Z,10.60
2023-03-31T19:19:10.515Z,10.60
2023-03-31T19:21:39.281Z,10.60
2023-03-31T19:24:09.238Z,10.60
2023-03-31T19:26:37.558Z,10.60
2023-03-31T19:29:06.173Z,10.60
2023-03-31T19:31:38.429Z,10.60
2023-03-31T19:34:07.991Z,10.60
2023-03-31T19:36:36.395Z,10.60
2023-03-31T19:39:06.416Z,10.70
2023-03-31T19:41:36.321Z,10.60
2023-03-31T19:44:04.440Z,10.60
2023-03-31T19:46:32.638Z,10.60
2023-03-31T19:49:01.462Z,10.60
2023-03-31T19:51:29.608Z,10.60
2023-03-31T19:53:58.511Z,10.60
2023-03-31T19:56:27.545Z,10.60
2023-03-31T19:58:57.479Z,10.60
2023-03-31T20:01:27.517Z,10.70
2023-03-31T20:03:56.232Z,10.70
2023-03-31T20:06:25.599Z,10.70
2023-03-31T20:08:55.277Z,10.70
2023-03-31T20:11:24.344Z,10.70
2023-03-31T20:13:52.688Z,10.70
2023-03-31T20:16:24.743Z,10.60
2023-03-31T20:18:54.304Z,10.60
2023-03-31T20:21:25.895Z,10.60
2023-03-31T20:23:54.199Z,10.60
2023-03-31T20:26:24.805Z,10.60
2023-03-31T20:28:54.910Z,10.60
2023-03-31T20:31:27.414Z,10.60
2023-03-31T20:33:56.333Z,10.60
2023-03-31T20:36:26.318Z,10.60
2023-03-31T20:38:55.214Z,10.60
2023-03-31T20:41:26.337Z,10.60
2023-03-31T20:43:55.298Z,10.60
2023-03-31T20:46:25.090Z,10.60
2023-03-31T20:48:56.419Z,10.60
2023-03-31T20:51:28.834Z,10.60
2023-03-31T20:53:57.881Z,10.60
2023-03-31T20:56:27.770Z,10.60
2023-03-31T20:58:58.835Z,10.50
2023-03-31T21:01:30.310Z,10.50
2023-03-31T21:04:00.793Z,10.50
2023-03-31T21:06:31.157Z,10.50
2023-03-31T21:08:59.653Z,10.50
2023-03-31T21:11:28.244Z,10.50
2023-03-31T21:13:56.510Z,10.50
2023-03-31T21:16:25.400Z,10.50
2023-03-31T21:18:55.772Z,10.50
2023-03-31T21:21:24.844Z,10.50
2023-03-31T21:23:53.451Z,10.50
2023-03-31T21:26:22.803Z,10.40
2023-03-31T21:28:54.043Z,10.40
2023-03-31T21:31:24.386Z,10.40
2023-03-31T21:33:56.610Z,10.40
2023-03-31T21:36:26.781Z,10.40
2023-03-31T21:38:55.974Z,10.40
2023-03-31T21:41:26.386Z,10.40
2023-03-31T21:43:55.601Z,10.40
2023-03-31T21:46:26.941Z,10.40
2023-03-31T21:48:57.577Z,10.40
2023-03-31T21:51:26.932Z,10.40
2023-03-31T21:53:55.737Z,10.40
2023-03-31T21:56:27.257Z,10.40
2023-03-31T21:58:55.846Z,10.40
2023-03-31T22:01:24.515Z,10.40
2023-03-31T22:03:53.439Z,10.40
2023-03-31T22:06:23.525Z,10.40
2023-03-31T22:08:52.208Z,10.40
2023-03-31T22:11:23.072Z,10.40
2023-03-31T22:13:51.493Z,10.40
2023-03-31T22:16:22.623Z,10.40
2023-03-31T22:18:52.908Z,10.40
2023-03-31T22:21:25.344Z,10.30
2023-03-31T22:23:54.618Z,10.40
2023-03-31T22:26:23.662Z,10.40
2023-03-31T22:28:52.572Z,10.30
2023-03-31T22:31:21.765Z,10.30
2023-03-31T22:33:50.558Z,10.30
2023-03-31T22:36:18.986Z,10.30
2023-03-31T22:38:48.870Z,10.30
2023-03-31T22:41:17.424Z,10.30
2023-03-31T22:43:46.372Z,10.30
2023-03-31T22:46:16.051Z,10.30
2023-03-31T22:48:44.660Z,10.30
2023-03-31T22:51:13.332Z,10.30
2023-03-31T22:53:41.899Z,10.30
2023-03-31T22:56:14.776Z,10.30
2023-03-31T22:58:43.337Z,10.40
2023-03-31T23:01:15.831Z,10.30
2023-03-31T23:03:45.411Z,10.30
2023-03-31T23:06:14.899Z,10.30
2023-03-31T23:08:44.912Z,10.30
2023-03-31T23:11:15.145Z,10.30
2023-03-31T23:13:43.587Z,10.30
2023-03-31T23:16:15.692Z,10.30
2023-03-31T23:18:46.949Z,10.30
2023-03-31T23:21:16.582Z,10.40
2023-03-31T23:23:45.146Z,10.40
2023-03-31T23:26:16.018Z,10.40
2023-03-31T23:28:45.626Z,10.40
2023-03-31T23:31:14.803Z,10.40
2023-03-31T23:33:43.606Z,10.40
2023-03-31T23:36:17.068Z,10.40
2023-03-31T23:38:45.870Z,10.40
2023-03-31T23:41:16.952Z,10.40
2023-03-31T23:43:45.893Z,10.40
2023-03-31T23:46:14.726Z,10.40
2023-03-31T23:48:43.250Z,10.40
2023-03-31T23:51:12.870Z,10.40
2023-03-31T23:53:41.317Z,10.40
2023-03-31T23:56:12.122Z,10.40
2023-03-31T23:58:43.162Z,10.40
